createdAt,value
2022-08-30T00:04:07.040Z,16.25
2022-08-30T00:09:15.867Z,16.26
2022-08-30T00:14:24.579Z,16.22
2022-08-30T00:19:33.202Z,16.11
2022-08-30T00:24:40.906Z,16.06
2022-08-30T00:29:48.461Z,15.92
2022-08-30T00:34:56.217Z,15.96
2022-08-30T00:40:03.410Z,15.98
2022-08-30T00:45:11.289Z,16.03
2022-08-30T00:50:18.916Z,16.11
2022-08-30T00:55:27.046Z,16.22
2022-08-30T01:00:35.802Z,16.29
2022-08-30T01:05:43.237Z,16.29
2022-08-30T01:10:50.961Z,16.26
2022-08-30T01:16:01.145Z,16.21
2022-08-30T01:21:08.460Z,16.19
2022-08-30T01:26:16.134Z,16.24
2022-08-30T01:31:24.234Z,16.15
2022-08-30T01:36:31.575Z,16.1
2022-08-30T01:41:39.420Z,16.01
2022-08-30T01:46:47.213Z,16.04
2022-08-30T01:51:53.940Z,16.01
2022-08-30T01:57:01.018Z,16.02
2022-08-30T02:02:08.853Z,15.93
2022-08-30T02:07:16.094Z,15.8
2022-08-30T02:12:23.275Z,15.72
2022-08-30T02:17:29.867Z,15.6
2022-08-30T02:22:37.845Z,15.53
2022-08-30T02:27:45.527Z,15.34
2022-08-30T02:32:53.006Z,15.2
2022-08-30T02:38:01.026Z,15.22
2022-08-30T02:43:09.513Z,15.06
2022-08-30T02:48:17.739Z,14.9
2022-08-30T02:53:25.281Z,14.79
2022-08-30T02:58:33.175Z,14.84
2022-08-30T03:03:40.508Z,14.78
2022-08-30T03:08:48.499Z,14.69
2022-08-30T03:13:56.637Z,14.52
2022-08-30T03:19:04.331Z,14.52
2022-08-30T03:24:13.229Z,14.61
2022-08-30T03:29:19.602Z,14.56
2022-08-30T03:34:28.578Z,14.57
2022-08-30T03:39:36.624Z,14.51
2022-08-30T03:44:43.833Z,14.58
2022-08-30T03:49:51.007Z,14.76
2022-08-30T03:54:58.165Z,14.8
2022-08-30T04:00:05.533Z,14.92
2022-08-30T04:05:12.567Z,14.88
2022-08-30T04:10:19.763Z,14.74
2022-08-30T04:15:28.073Z,14.62
2022-08-30T04:20:36.076Z,14.58
2022-08-30T04:25:43.834Z,14.48
2022-08-30T04:30:51.284Z,14.46
2022-08-30T04:36:00.721Z,14.76
2022-08-30T04:41:07.107Z,14.88
2022-08-30T04:46:13.981Z,14.88
2022-08-30T04:51:20.540Z,15.22
2022-08-30T04:56:28.695Z,16.32
2022-08-30T05:01:35.597Z,18.21
2022-08-30T05:06:43.395Z,20.94
2022-08-30T05:11:51.569Z,23.4
2022-08-30T05:17:07.578Z,24.75
2022-08-30T05:22:14.632Z,26.16
2022-08-30T05:27:21.834Z,27.8
2022-08-30T05:32:30.811Z,28.46
2022-08-30T05:37:37.525Z,27.73
2022-08-30T05:42:46.427Z,29.07
2022-08-30T05:47:54.319Z,30.03
2022-08-30T05:53:01.684Z,31.11
2022-08-30T05:58:08.855Z,30.64
2022-08-30T06:03:17.179Z,29.47
2022-08-30T06:08:25.851Z,29.44
2022-08-30T06:13:33.691Z,30.16
2022-08-30T06:18:40.886Z,31.34
2022-08-30T06:23:48.085Z,32.86
2022-08-30T06:28:56.963Z,30.96
2022-08-30T06:34:04.656Z,30.2
2022-08-30T06:39:11.944Z,29.73
2022-08-30T06:44:18.781Z,29.08
2022-08-30T06:49:25.980Z,28.39
2022-08-30T06:54:33.818Z,26.08
2022-08-30T06:59:40.998Z,24.3
2022-08-30T07:04:48.854Z,23.6
2022-08-30T07:09:56.658Z,23.4
2022-08-30T07:15:04.566Z,23.76
2022-08-30T07:20:12.119Z,25.84
2022-08-30T07:25:19.612Z,29.2
2022-08-30T07:30:26.163Z,29.07
2022-08-30T07:35:33.967Z,27.42
2022-08-30T07:40:51.324Z,28.7
2022-08-30T07:45:58.643Z,30.2
2022-08-30T07:51:06.740Z,28.04
2022-08-30T07:56:14.899Z,29.05
2022-08-30T08:01:22.374Z,30.1
2022-08-30T08:06:30.288Z,30.97
2022-08-30T08:11:37.818Z,30.04
2022-08-30T08:16:45.016Z,29.72
2022-08-30T08:21:52.219Z,30.64
2022-08-30T08:26:59.414Z,32.24
2022-08-30T08:32:05.981Z,30.38
2022-08-30T08:37:13.820Z,28.88
2022-08-30T08:42:21.384Z,29.4
2022-08-30T08:47:28.886Z,29.6
2022-08-30T08:52:36.575Z,30.5
2022-08-30T08:57:45.047Z,31.38
2022-08-30T09:02:53.263Z,32.0
2022-08-30T09:08:00.220Z,31.16
2022-08-30T09:13:08.132Z,30.07
2022-08-30T09:18:15.459Z,29.56
2022-08-30T09:23:24.131Z,29.74
2022-08-30T09:28:31.623Z,30.56
2022-08-30T09:33:38.777Z,29.85
2022-08-30T09:38:46.818Z,29.55
2022-08-30T09:44:03.426Z,28.68
2022-08-30T09:49:10.617Z,28.7
2022-08-30T09:54:18.767Z,28.32
2022-08-30T09:59:25.861Z,28.68
2022-08-30T10:04:33.632Z,28.86
2022-08-30T10:09:41.924Z,28.81
2022-08-30T10:14:49.367Z,29.15
2022-08-30T10:19:56.979Z,28.6
2022-08-30T10:25:03.863Z,28.64
2022-08-30T10:30:11.416Z,28.36
2022-08-30T10:35:18.698Z,28.46
2022-08-30T10:40:25.822Z,28.19
2022-08-30T10:45:33.635Z,27.82
2022-08-30T10:50:41.080Z,28.29
2022-08-30T10:55:48.835Z,28.12
2022-08-30T11:00:56.533Z,28.16
2022-08-30T11:06:03.099Z,28.39
2022-08-30T11:11:10.306Z,28.76
2022-08-30T11:16:16.855Z,28.79
2022-08-30T11:21:24.137Z,29.23
2022-08-30T11:26:32.535Z,29.6
2022-08-30T11:31:40.410Z,29.51
2022-08-30T11:36:47.612Z,29.46
2022-08-30T11:41:54.926Z,28.83
2022-08-30T11:47:02.678Z,28.86
2022-08-30T11:52:10.189Z,29.83
2022-08-30T11:57:18.323Z,29.5
2022-08-30T12:02:25.639Z,28.73
2022-08-30T12:07:32.884Z,28.38
2022-08-30T12:12:40.535Z,27.81
2022-08-30T12:17:48.377Z,27.67
2022-08-30T12:22:56.858Z,27.94
2022-08-30T12:28:04.017Z,27.46
2022-08-30T12:33:12.049Z,27.78
2022-08-30T12:38:19.741Z,27.97
2022-08-30T12:43:26.736Z,27.67
2022-08-30T12:48:33.756Z,27.86
2022-08-30T12:53:40.765Z,27.61
2022-08-30T12:58:47.894Z,27.85
2022-08-30T13:03:55.770Z,28.2
2022-08-30T13:09:13.072Z,28.31
2022-08-30T13:14:21.757Z,28.2
2022-08-30T13:19:28.289Z,28.08
2022-08-30T13:24:35.918Z,28.52
2022-08-30T13:29:43.910Z,29.02
2022-08-30T13:34:51.973Z,28.44
2022-08-30T13:39:59.753Z,28.46
2022-08-30T13:45:07.097Z,27.92
2022-08-30T13:50:13.723Z,27.73
2022-08-30T13:55:22.967Z,27.86
2022-08-30T14:00:31.583Z,27.94
2022-08-30T14:05:39.146Z,27.92
2022-08-30T14:10:47.262Z,28.22
2022-08-30T14:15:55.218Z,27.99
2022-08-30T14:21:01.658Z,28.04
2022-08-30T14:26:08.649Z,28.03
2022-08-30T14:31:16.120Z,27.6
2022-08-30T14:36:24.218Z,27.4
2022-08-30T14:41:31.081Z,27.42
2022-08-30T14:46:39.493Z,27.54
2022-08-30T14:51:46.726Z,27.39
2022-08-30T14:56:54.646Z,27.38
2022-08-30T15:02:02.942Z,27.54
2022-08-30T15:07:10.941Z,28.12
2022-08-30T15:12:17.531Z,28.16
2022-08-30T15:17:25.839Z,27.84
2022-08-30T15:22:33.234Z,27.57
2022-08-30T15:27:41.002Z,27.39
2022-08-30T15:32:48.216Z,27.53
2022-08-30T15:37:55.817Z,28.38
2022-08-30T15:43:02.787Z,28.61
2022-08-30T15:48:09.758Z,28.06
2022-08-30T15:53:16.375Z,27.56
2022-08-30T15:58:22.946Z,27.02
2022-08-30T16:03:31.927Z,26.58
2022-08-30T16:08:41.780Z,26.86
2022-08-30T16:13:50.213Z,26.78
2022-08-30T16:18:57.302Z,26.4
2022-08-30T16:24:03.421Z,26.24
2022-08-30T16:29:10.860Z,25.46
2022-08-30T16:34:19.303Z,24.89
2022-08-30T16:39:26.487Z,23.74
2022-08-30T16:44:33.496Z,22.73
2022-08-30T16:49:40.459Z,22.31
2022-08-30T16:54:47.834Z,21.58
2022-08-30T16:59:55.325Z,21.17
2022-08-30T17:05:02.438Z,20.83
2022-08-30T17:10:10.633Z,20.62
2022-08-30T17:15:18.021Z,20.38
2022-08-30T17:20:25.214Z,20.08
2022-08-30T17:25:32.382Z,20.01
2022-08-30T17:30:39.546Z,19.93
2022-08-30T17:35:46.741Z,19.8
2022-08-30T17:40:54.280Z,19.49
2022-08-30T17:46:02.091Z,19.24
2022-08-30T17:51:10.172Z,19.19
2022-08-30T17:56:17.533Z,18.98
2022-08-30T18:01:24.728Z,18.72
2022-08-30T18:06:31.961Z,18.36
2022-08-30T18:11:39.131Z,18.2
2022-08-30T18:16:45.659Z,18.08
2022-08-30T18:21:53.704Z,17.96
2022-08-30T18:27:01.237Z,17.86
2022-08-30T18:32:08.972Z,17.64
2022-08-30T18:37:16.994Z,17.51
2022-08-30T18:42:24.011Z,17.16
2022-08-30T18:47:31.710Z,17.23
2022-08-30T18:52:40.213Z,17.26
2022-08-30T18:57:49.562Z,17.39
2022-08-30T19:02:56.827Z,17.48
2022-08-30T19:08:04.333Z,17.33
2022-08-30T19:13:11.939Z,16.99
2022-08-30T19:18:19.148Z,16.78
2022-08-30T19:23:26.573Z,16.92
2022-08-30T19:28:33.494Z,16.88
2022-08-30T19:33:40.862Z,16.71
2022-08-30T19:38:48.442Z,16.57
2022-08-30T19:43:56.417Z,16.46
2022-08-30T19:49:05.215Z,16.32
2022-08-30T19:54:13.276Z,16.29
2022-08-30T19:59:20.571Z,16.14
2022-08-30T20:04:28.347Z,16.06
2022-08-30T20:11:06.754Z,16.03
2022-08-30T20:16:12.945Z,16.08
2022-08-30T20:21:20.308Z,16.11
2022-08-30T20:26:28.301Z,15.86
2022-08-30T20:31:43.294Z,15.92
2022-08-30T20:36:50.821Z,15.84
2022-08-30T20:41:58.938Z,15.68
2022-08-30T20:47:06.462Z,15.61
2022-08-30T20:52:14.292Z,15.52
2022-08-30T20:57:23.394Z,15.42
2022-08-30T21:02:31.963Z,15.28
2022-08-30T21:07:40.392Z,15.34
2022-08-30T21:12:48.307Z,15.33
2022-08-30T21:17:56.246Z,15.4
2022-08-30T21:23:04.695Z,15.47
2022-08-30T21:28:11.774Z,15.3
2022-08-30T21:33:20.260Z,15.22
2022-08-30T21:38:27.868Z,15.05
2022-08-30T21:43:35.929Z,15.04
2022-08-30T21:48:44.066Z,14.94
2022-08-30T21:53:51.042Z,14.98
2022-08-30T21:58:58.784Z,14.96
2022-08-30T22:04:07.484Z,15.02
2022-08-30T22:09:15.770Z,14.99
2022-08-30T22:14:23.390Z,15.06
2022-08-30T22:19:30.346Z,15.03
2022-08-30T22:24:38.012Z,15.08
2022-08-30T22:29:47.032Z,14.99
2022-08-30T22:34:54.680Z,14.9
2022-08-30T22:40:03.254Z,14.78
2022-08-30T22:45:10.653Z,14.72
2022-08-30T22:50:18.128Z,14.71
2022-08-30T22:55:25.718Z,14.67
2022-08-30T23:00:33.699Z,14.76
2022-08-30T23:05:41.499Z,14.6
2022-08-30T23:10:49.441Z,14.56
2022-08-30T23:15:57.605Z,14.55
2022-08-30T23:21:12.545Z,14.55
2022-08-30T23:26:19.095Z,14.49
2022-08-30T23:31:26.254Z,14.44
2022-08-30T23:36:33.566Z,14.38
2022-08-30T23:41:41.990Z,14.26
2022-08-30T23:46:50.391Z,14.24
2022-08-30T23:51:58.436Z,14.13
2022-08-30T23:57:05.545Z,14.15
